Skip to main content

NOAA/GLERL Met Station at Michigan City, IN

Previous 3 Hours (2 minute increments)
See also Previous 5 Days (top of hour)
Jump down to Data
Switch to [English][Metric]
Zoom: Click and drag, Pan: shift-click and drag, Unzoom: double-click, Unzoom All





See also 1-day windrose plot


NOAA/GLERL Met Station at Michigan City, IN

Previous 3 Hours (2 minute increments)
See also Previous 5 Days (top of hour only)
Jump up to Graphs
Switch to [English][Metric]
                  Wind  Wind  Wind   Air   Dew   Rel     Sta   PAR
                   Spd   Gst   Dir  Temp    Pt   Hum    Pres uE/m2/
YYYY-MM-DD   CDT   kts   kts   deg     F     F     %   in Hg   sec
2018-07-17 08:36   5.2   6.2   341  75.4   0.0   0.0    0.00   985
2018-07-17 08:34   5.8   6.6   338  75.2   0.0   0.0    0.00   960
2018-07-17 08:32   6.8   7.6   338  75.2   0.0   0.0    0.00   903
2018-07-17 08:30   6.4   7.0   336  75.0   0.0   0.0    0.00   903
2018-07-17 08:28   6.6   7.6   342  75.0   0.0   0.0    0.00   903
2018-07-17 08:26   6.8   7.8   342  75.2   0.0   0.0    0.00   903
2018-07-17 08:24   6.8   8.0   342  75.0   0.0   0.0    0.00   903
2018-07-17 08:22   6.8   7.6   332  75.0   0.0   0.0    0.00   903
2018-07-17 08:20   7.2   7.8   340  74.8   0.0   0.0    0.00   903
2018-07-17 08:18   7.6   8.2   330  74.7   0.0   0.0    0.00   903
2018-07-17 08:16   8.2   8.7   338  74.8   0.0   0.0    0.00   903
2018-07-17 08:14   8.7   9.3   341  74.8   0.0   0.0    0.00   903
2018-07-17 08:12   8.4   9.5   342  74.8   0.0   0.0    0.00   903
2018-07-17 08:10   9.1   9.7   334  74.7   0.0   0.0    0.00   903
2018-07-17 08:08   8.6   9.1   335  74.7   0.0   0.0    0.00   881
2018-07-17 08:06   8.4   9.9   335  74.7   0.0   0.0    0.00   823
2018-07-17 08:04   8.7   9.3   340  74.5   0.0   0.0    0.00   821
2018-07-17 08:02   9.7  10.7   338  74.5   0.0   0.0    0.00   821
2018-07-17 08:00  10.1  10.5   337  74.5   0.0   0.0    0.00   821
2018-07-17 07:58   9.1  10.1   338  74.3   0.0   0.0    0.00   821
2018-07-17 07:56  10.1  10.7   335  74.3   0.0   0.0    0.00   821
2018-07-17 07:54  10.7  11.1   328  74.3   0.0   0.0    0.00   792
2018-07-17 07:52  10.9  11.7   334  74.5   0.0   0.0    0.00   739
2018-07-17 07:50  11.7  13.0   338  74.5   0.0   0.0    0.00   739
2018-07-17 07:48  12.2  12.8   333  74.3   0.0   0.0    0.00   739
2018-07-17 07:46  11.5  12.2   336  74.3   0.0   0.0    0.00   739
2018-07-17 07:44  13.0  13.6   330  74.3   0.0   0.0    0.00   739
2018-07-17 07:42  13.2  14.2   330  74.5   0.0   0.0    0.00   688
2018-07-17 07:40  14.0  15.2   336  74.5   0.0   0.0    0.00   657
2018-07-17 07:38  14.2  15.2   330  74.5   0.0   0.0    0.00   657
2018-07-17 07:36  13.6  15.4   324  74.3   0.0   0.0    0.00   657
2018-07-17 07:34  12.8  13.6   329  74.7   0.0   0.0    0.00   657
2018-07-17 07:32  13.0  13.8   336  74.5   0.0   0.0    0.00   657
2018-07-17 07:30  12.4  13.8   337  74.5   0.0   0.0    0.00   657
2018-07-17 07:28  12.6  13.4   335  74.5   0.0   0.0    0.00   614
2018-07-17 07:26  12.8  13.8   333  74.7   0.0   0.0    0.00   580
2018-07-17 07:24  13.4  14.2   333  74.7   0.0   0.0    0.00   575
2018-07-17 07:22  12.4  13.0   329  74.8   0.0   0.0    0.00   575
2018-07-17 07:20  11.5  12.2   332  74.8   0.0   0.0    0.00   575
2018-07-17 07:18  11.7  13.0   337  74.7   0.0   0.0    0.00   575
2018-07-17 07:16  12.4  12.8   331  74.7   0.0   0.0    0.00   515
2018-07-17 07:14  12.1  12.8   334  74.7   0.0   0.0    0.00   493
2018-07-17 07:12  11.9  12.4   335  74.7   0.0   0.0    0.00   493
2018-07-17 07:10  11.7  12.4   334  74.7   0.0   0.0    0.00   493
2018-07-17 07:08  11.9  12.8   332  74.7   0.0   0.0    0.00   493
2018-07-17 07:06  13.2  13.8   329  74.5   0.0   0.0    0.00   493
2018-07-17 07:04  13.2  14.2   328  74.5   0.0   0.0    0.00   493
2018-07-17 07:02  13.0  13.6   332  74.7   0.0   0.0    0.00   430
2018-07-17 07:00  13.0  13.6   332  74.7   0.0   0.0    0.00   411
2018-07-17 06:58  13.0  14.0   336  74.7   0.0   0.0    0.00   411
2018-07-17 06:56  13.0  13.8   329  74.5   0.0   0.0    0.00   411
2018-07-17 06:54  13.4  14.4   329  74.7   0.0   0.0    0.00   411
2018-07-17 06:52  14.2  14.8   329  74.5   0.0   0.0    0.00   409
2018-07-17 06:50  13.0  15.0   331  74.7   0.0   0.0    0.00   346
2018-07-17 06:48  14.0  14.4   339  74.7   0.0   0.0    0.00   329
2018-07-17 06:46  14.2  15.0   341  74.7   0.0   0.0    0.00   329
2018-07-17 06:44  14.6  15.6   339  74.7   0.0   0.0    0.00   329
2018-07-17 06:42  13.6  15.2   337  74.7   0.0   0.0    0.00   329
2018-07-17 06:40  13.8  14.8   335  74.7   0.0   0.0    0.00   315
2018-07-17 06:38  13.6  14.4   343  74.7   0.0   0.0    0.00   199
2018-07-17 06:36  14.6  15.4   342  74.7   0.0   0.0    0.00   234
2018-07-17 06:34  12.6  14.4   344  74.7   0.0   0.0    0.00   264
2018-07-17 06:32  14.0  15.2   342  74.7   0.0   0.0    0.00   246
2018-07-17 06:30  15.4  15.9   341  74.5   0.0   0.0    0.00   195
2018-07-17 06:28  14.6  15.2   342  74.7   0.0   0.0    0.00    96
2018-07-17 06:26  14.4  15.6   342  74.7   0.0   0.0    0.00    82
2018-07-17 06:24  13.8  15.0   343  74.7   0.0   0.0    0.00    82
2018-07-17 06:22  12.2  13.0   344  74.7   0.0   0.0    0.00    82
2018-07-17 06:20  13.0  14.2   345  74.7   0.0   0.0    0.00   151
2018-07-17 06:18  14.4  15.9   342  74.7   0.0   0.0    0.00   164
2018-07-17 06:16  15.6  16.7   344  74.7   0.0   0.0    0.00   164
2018-07-17 06:14  14.6  16.5   342  74.7   0.0   0.0    0.00   164
2018-07-17 06:12  14.0  15.7   341  74.7   0.0   0.0    0.00   164
2018-07-17 06:10  14.6  15.6   345  74.7   0.0   0.0    0.00   164
2018-07-17 06:08  15.4  16.9   345  74.7   0.0   0.0    0.00   164
2018-07-17 06:06  16.5  17.7   342  74.7   0.0   0.0    0.00   163
2018-07-17 06:04  16.9  18.5   341  74.7   0.0   0.0    0.00   122
2018-07-17 06:02  15.7  17.1   342  74.7   0.0   0.0    0.00    82
2018-07-17 06:00  15.9  17.7   342  74.7   0.0   0.0    0.00    82
2018-07-17 05:58  15.2  16.5   340  74.7   0.0   0.0    0.00    82
2018-07-17 05:56  16.1  18.5   338  74.7   0.0   0.0    0.00    82
2018-07-17 05:54  16.9  18.3   339  74.7   0.0   0.0    0.00    82
2018-07-17 05:52  17.1  18.7   337  74.7   0.0   0.0    0.00    82
2018-07-17 05:50  15.9  17.9   337  74.7   0.0   0.0    0.00    82
2018-07-17 05:48  17.1  17.9   339  74.7   0.0   0.0    0.00    80
2018-07-17 05:46  15.4  17.5   343  74.7   0.0   0.0    0.00    65
2018-07-17 05:44  16.3  17.7   341  74.7   0.0   0.0    0.00    10
2018-07-17 05:42  17.3  18.3   337  74.7   0.0   0.0    0.00     2
2018-07-17 05:40  16.1  18.1   337  74.7   0.0   0.0    0.00     0
2018-07-17 05:38  17.3  18.7   338  74.7   0.0   0.0    0.00     0
2018-07-17 05:36  17.7  19.1   334  74.7   0.0   0.0    0.00     0